Time;durP1;ratioP1;P1;durP2;ratioP2;P2;SDS_P1;SDS_P2;PMS_P1;PMS_P2;Temp;Humidity;BMP_temperature;BMP_pressure;BME280_temperature;BME280_humidity;BME280_pressure;Samples;Min_cycle;Max_cycle;Signal;HPM_P1;HPM_P2
2022/06/26 00:02:03;;;;;;;0.75;0.75;;;21.90;99.90;;;;;;5067024;28;20260;-63
2022/06/26 00:04:31;;;;;;;0.80;0.70;;;21.60;99.90;;;;;;5063581;28;20212;-64
2022/06/26 00:07:00;;;;;;;0.70;0.70;;;21.50;99.90;;;;;;5067194;28;20208;-64
2022/06/26 00:09:28;;;;;;;0.60;0.60;;;21.40;99.90;;;;;;5064271;28;20223;-64
2022/06/26 00:11:55;;;;;;;0.60;0.60;;;21.40;99.90;;;;;;5068132;28;20687;-64
2022/06/26 00:14:23;;;;;;;0.68;0.68;;;21.40;99.90;;;;;;5064622;28;20211;-64
2022/06/26 00:16:51;;;;;;;0.70;0.70;;;21.40;99.90;;;;;;5068129;28;20215;-65
2022/06/26 00:19:19;;;;;;;0.60;0.60;;;21.30;99.90;;;;;;5066863;28;20227;-64
2022/06/26 00:21:47;;;;;;;0.55;0.55;;;21.30;99.90;;;;;;5065557;28;20204;-64
2022/06/26 00:24:15;;;;;;;0.70;0.70;;;21.30;99.90;;;;;;5071757;28;20238;-66
2022/06/26 00:26:43;;;;;;;0.70;0.70;;;21.40;99.90;;;;;;5064419;28;20211;-65
2022/06/26 00:29:11;;;;;;;0.75;0.60;;;21.30;99.90;;;;;;5062368;28;20725;-65
2022/06/26 00:31:38;;;;;;;4.28;0.90;;;21.20;99.90;;;;;;5061991;28;20306;-65
2022/06/26 00:34:06;;;;;;;0.50;0.50;;;21.20;99.90;;;;;;5074576;28;20682;-65
2022/06/26 00:36:33;;;;;;;1.85;0.77;;;21.20;99.90;;;;;;5065291;28;20840;-65
2022/06/26 00:39:00;;;;;;;0.70;0.70;;;21.20;99.90;;;;;;5063797;28;20639;-64
2022/06/26 00:41:29;;;;;;;0.50;0.50;;;21.20;99.90;;;;;;5072483;28;20230;-66
2022/06/26 00:43:57;;;;;;;0.43;0.43;;;21.20;99.90;;;;;;5062997;28;20246;-64
2022/06/26 00:46:25;;;;;;;0.60;0.60;;;21.20;99.90;;;;;;5068657;28;20205;-64
2022/06/26 00:48:53;;;;;;;0.50;0.50;;;21.30;99.90;;;;;;5062230;28;20223;-65
2022/06/26 00:51:21;;;;;;;0.50;0.50;;;21.30;99.90;;;;;;5071075;28;20282;-65
2022/06/26 00:53:50;;;;;;;0.70;0.70;;;21.30;99.90;;;;;;5062425;28;20265;-65
2022/06/26 00:56:17;;;;;;;0.68;0.68;;;21.40;99.90;;;;;;5062932;28;20208;-66
2022/06/26 00:58:47;;;;;;;0.60;0.60;;;21.20;99.90;;;;;;5065078;28;20305;-65
2022/06/26 01:01:14;;;;;;;0.50;0.50;;;21.10;99.90;;;;;;5065562;28;20208;-64
2022/06/26 01:03:42;;;;;;;0.68;0.68;;;21.00;99.90;;;;;;5066220;28;20615;-65
2022/06/26 01:06:10;;;;;;;0.70;0.70;;;20.90;99.90;;;;;;5064836;28;20253;-65
2022/06/26 01:08:38;;;;;;;0.80;0.80;;;20.80;99.90;;;;;;5053708;28;20211;-66
2022/06/26 01:11:17;;;;;;;0.60;0.60;;;20.70;99.90;;;;;;5066067;28;20214;-65
2022/06/26 01:13:47;;;;;;;0.70;0.70;;;20.60;99.90;;;;;;5063977;28;20681;-65
2022/06/26 01:16:17;;;;;;;0.70;0.70;;;20.50;99.90;;;;;;5071603;28;20207;-64
2022/06/26 01:18:47;;;;;;;0.63;0.63;;;20.50;99.90;;;;;;5066349;28;20723;-65
2022/06/26 01:21:14;;;;;;;0.60;0.60;;;20.40;99.90;;;;;;5059076;28;20204;-65
2022/06/26 01:23:44;;;;;;;0.70;0.70;;;20.40;99.90;;;;;;5045965;28;20624;-65
2022/06/26 01:26:12;;;;;;;0.70;0.70;;;20.30;99.90;;;;;;5068659;28;20207;-65
2022/06/26 01:28:39;;;;;;;0.75;0.75;;;20.20;99.90;;;;;;5067765;28;20290;-65
2022/06/26 01:31:07;;;;;;;0.70;0.70;;;20.20;99.90;;;;;;5069401;28;20211;-62
2022/06/26 01:33:37;;;;;;;1.07;0.83;;;20.20;99.90;;;;;;5064605;28;20208;-63
2022/06/26 01:36:05;;;;;;;0.80;0.80;;;20.10;99.90;;;;;;5069061;28;20203;-65
2022/06/26 01:38:33;;;;;;;0.60;0.60;;;20.10;99.90;;;;;;5055423;28;20622;-65
2022/06/26 01:41:02;;;;;;;0.70;0.70;;;20.10;99.90;;;;;;5061698;28;20284;-65
2022/06/26 01:43:32;;;;;;;0.90;0.90;;;20.20;99.90;;;;;;5063128;28;20223;-65
2022/06/26 01:46:01;;;;;;;0.70;0.70;;;20.10;99.90;;;;;;5066550;28;20210;-65
2022/06/26 01:48:30;;;;;;;0.73;0.73;;;20.10;99.90;;;;;;5063586;28;20302;-65
2022/06/26 01:50:59;;;;;;;0.80;0.80;;;20.10;99.90;;;;;;5065663;28;20288;-64
2022/06/26 01:53:27;;;;;;;0.90;0.90;;;20.10;99.90;;;;;;5078195;28;20554;-63
2022/06/26 01:55:54;;;;;;;1.30;1.00;;;20.00;99.90;;;;;;5059114;28;20212;-67
2022/06/26 01:58:22;;;;;;;0.60;0.60;;;19.90;99.90;;;;;;5062885;28;20660;-65
2022/06/26 02:00:53;;;;;;;0.50;0.50;;;19.90;99.90;;;;;;5073965;28;20220;-65
2022/06/26 02:03:22;;;;;;;0.50;0.50;;;19.90;99.90;;;;;;5059114;28;20211;-65
2022/06/26 02:05:50;;;;;;;0.75;0.75;;;19.90;99.90;;;;;;5056020;28;20249;-65
2022/06/26 02:08:18;;;;;;;0.70;0.70;;;20.00;99.90;;;;;;5073118;28;20765;-65
2022/06/26 02:13:39;;;;;;;0.63;0.63;;;19.70;99.90;;;;;;5066203;28;20221;-67
2022/06/26 02:16:10;;;;;;;0.60;0.60;;;19.60;99.90;;;;;;5065354;28;20687;-66
2022/06/26 02:18:38;;;;;;;0.87;0.87;;;19.60;99.90;;;;;;5039790;28;20203;-64
2022/06/26 02:21:08;;;;;;;0.70;0.70;;;19.60;99.90;;;;;;5065770;28;20637;-64
2022/06/26 02:23:38;;;;;;;0.82;0.82;;;19.50;99.90;;;;;;5065227;28;20310;-64
2022/06/26 02:26:08;;;;;;;0.97;0.90;;;19.50;99.90;;;;;;5058767;28;20234;-64
2022/06/26 02:28:38;;;;;;;0.80;0.80;;;19.50;99.90;;;;;;5054193;28;20192;-64
2022/06/26 02:31:06;;;;;;;0.70;0.70;;;19.60;99.90;;;;;;5069833;28;20203;-64
2022/06/26 02:33:35;;;;;;;0.80;0.80;;;19.50;99.90;;;;;;5077190;28;20225;-64
2022/06/26 02:36:05;;;;;;;0.80;0.80;;;19.50;99.90;;;;;;5063107;28;20278;-64
2022/06/26 02:38:33;;;;;;;0.80;0.80;;;19.50;99.90;;;;;;5068647;28;20207;-64
2022/06/26 02:41:01;;;;;;;0.73;0.73;;;19.50;99.90;;;;;;5079104;28;20214;-65
2022/06/26 02:43:29;;;;;;;0.73;0.73;;;19.50;99.90;;;;;;5081212;28;20215;-66
2022/06/26 02:45:59;;;;;;;0.80;0.80;;;19.50;99.90;;;;;;5079445;28;20229;-65
2022/06/26 02:48:28;;;;;;;0.53;0.53;;;19.40;99.90;;;;;;5082172;28;20524;-64
2022/06/26 02:50:56;;;;;;;0.57;0.57;;;19.30;99.90;;;;;;5075897;28;20251;-64
2022/06/26 02:53:24;;;;;;;0.70;0.70;;;19.30;99.90;;;;;;5080151;28;20682;-64
2022/06/26 02:55:51;;;;;;;0.68;0.68;;;19.30;99.90;;;;;;5073096;28;20238;-65
2022/06/26 02:58:19;;;;;;;0.80;0.80;;;19.30;99.90;;;;;;5075412;28;20211;-65
2022/06/26 03:00:47;;;;;;;0.60;0.60;;;19.30;99.90;;;;;;5081859;28;20230;-64
2022/06/26 03:03:17;;;;;;;0.70;0.70;;;19.30;99.90;;;;;;5077930;28;20223;-64
2022/06/26 03:05:46;;;;;;;0.60;0.60;;;19.20;99.90;;;;;;5067920;28;20218;-65
2022/06/26 03:08:14;;;;;;;0.77;0.77;;;19.30;99.90;;;;;;5082682;28;20210;-66
2022/06/26 03:10:41;;;;;;;0.80;0.80;;;19.30;99.90;;;;;;5069213;28;20227;-66
2022/06/26 03:13:08;;;;;;;0.77;0.77;;;19.40;99.90;;;;;;5077210;28;20261;-67
2022/06/26 03:15:35;;;;;;;0.70;0.70;;;19.40;99.90;;;;;;5067976;28;20297;-66
2022/06/26 03:18:02;;;;;;;1.80;0.80;;;19.40;99.90;;;;;;5061658;28;20208;-66
2022/06/26 03:20:31;;;;;;;0.70;0.70;;;19.40;99.90;;;;;;5074537;28;20310;-64
2022/06/26 03:22:58;;;;;;;0.70;0.70;;;19.40;99.90;;;;;;5064554;28;20242;-67
2022/06/26 03:25:25;;;;;;;0.93;0.93;;;19.40;99.90;;;;;;5071060;28;20286;-68
2022/06/26 03:27:52;;;;;;;0.73;0.73;;;19.50;99.90;;;;;;5063396;28;20195;-66
2022/06/26 03:30:19;;;;;;;0.77;0.77;;;19.50;99.90;;;;;;5071994;28;20331;-66
2022/06/26 03:32:45;;;;;;;0.65;0.65;;;19.50;99.90;;;;;;5064431;28;20210;-65
2022/06/26 03:35:13;;;;;;;0.60;0.60;;;19.50;99.90;;;;;;5071641;28;20210;-66
2022/06/26 03:37:41;;;;;;;0.70;0.70;;;19.50;99.90;;;;;;5069951;28;20235;-65
2022/06/26 03:40:09;;;;;;;0.90;0.90;;;19.50;99.90;;;;;;5059765;28;20229;-65
2022/06/26 03:42:36;;;;;;;0.77;0.77;;;19.50;99.90;;;;;;5064875;28;20615;-66
2022/06/26 03:45:04;;;;;;;0.70;0.70;;;19.40;99.90;;;;;;5069192;28;20223;-67
2022/06/26 03:47:31;;;;;;;0.70;0.70;;;19.40;99.90;;;;;;5070762;28;20207;-65
2022/06/26 03:49:57;;;;;;;0.65;0.65;;;19.40;99.90;;;;;;5062825;28;20229;-66
2022/06/26 03:52:25;;;;;;;0.60;0.60;;;19.40;99.90;;;;;;5064465;28;20232;-67
2022/06/26 03:54:53;;;;;;;0.68;0.68;;;19.30;99.90;;;;;;5070032;28;20211;-67
2022/06/26 03:57:21;;;;;;;1.20;0.70;;;19.20;99.90;;;;;;5066813;28;20223;-66
2022/06/26 03:59:48;;;;;;;0.57;0.57;;;19.20;99.90;;;;;;5068734;28;20316;-66
2022/06/26 04:02:15;;;;;;;0.70;0.70;;;19.10;99.90;;;;;;5064536;28;20200;-66
2022/06/26 04:04:42;;;;;;;0.50;0.50;;;19.10;99.90;;;;;;5070619;28;20306;-67
2022/06/26 04:07:12;;;;;;;0.60;0.60;;;19.10;99.90;;;;;;5063375;28;20282;-59
2022/06/26 04:09:39;;;;;;;0.70;0.70;;;19.20;99.90;;;;;;5053911;28;20223;-57
2022/06/26 04:12:08;;;;;;;0.50;0.50;;;19.30;99.90;;;;;;5070540;28;20287;-57
2022/06/26 04:14:35;;;;;;;0.80;0.80;;;19.40;99.90;;;;;;5069714;28;20203;-58
2022/06/26 04:17:02;;;;;;;0.52;0.52;;;19.40;99.90;;;;;;5069164;28;20203;-58
2022/06/26 04:19:29;;;;;;;0.70;0.70;;;19.60;99.90;;;;;;5069815;28;20255;-58
2022/06/26 04:21:56;;;;;;;0.50;0.50;;;19.70;99.90;;;;;;5069819;28;20266;-59
2022/06/26 04:24:22;;;;;;;0.60;0.60;;;19.80;99.90;;;;;;5058493;28;20274;-59
2022/06/26 04:26:49;;;;;;;0.53;0.53;;;19.70;99.90;;;;;;5067209;28;20310;-58
2022/06/26 04:29:18;;;;;;;0.60;0.60;;;19.70;99.90;;;;;;5069016;28;20262;-58
2022/06/26 04:31:44;;;;;;;1.00;0.68;;;19.70;99.90;;;;;;5071441;28;20219;-57
2022/06/26 04:34:11;;;;;;;0.70;0.70;;;19.70;99.90;;;;;;5078868;28;20234;-59
2022/06/26 04:36:38;;;;;;;0.60;0.60;;;19.80;99.90;;;;;;5062332;28;20724;-57
2022/06/26 04:39:05;;;;;;;0.52;0.52;;;19.90;99.90;;;;;;5071977;28;20259;-57
2022/06/26 04:41:34;;;;;;;0.68;0.68;;;20.00;99.90;;;;;;5068669;28;20244;-57
2022/06/26 04:44:02;;;;;;;0.50;0.50;;;20.10;99.90;;;;;;5074650;28;20641;-59
2022/06/26 04:46:30;;;;;;;0.50;0.50;;;20.10;99.90;;;;;;5065360;28;20290;-59
2022/06/26 04:48:57;;;;;;;0.70;0.70;;;20.20;99.90;;;;;;5070279;28;20223;-59
2022/06/26 04:51:24;;;;;;;0.52;0.52;;;20.20;99.90;;;;;;5067308;28;20214;-57
2022/06/26 04:53:51;;;;;;;0.50;0.50;;;20.30;99.90;;;;;;5076224;28;20254;-58
2022/06/26 04:56:18;;;;;;;0.70;0.70;;;20.30;99.90;;;;;;5067552;28;20286;-59
2022/06/26 04:58:45;;;;;;;0.98;0.60;;;20.30;99.90;;;;;;5074994;28;20231;-59
2022/06/26 05:01:12;;;;;;;0.70;0.70;;;20.40;99.90;;;;;;5060290;28;20690;-59
2022/06/26 05:03:40;;;;;;;0.57;0.57;;;20.50;99.90;;;;;;5072791;28;20204;-59
2022/06/26 05:06:07;;;;;;;0.57;0.57;;;20.50;99.90;;;;;;5071824;28;20203;-57
2022/06/26 05:08:34;;;;;;;0.68;0.68;;;20.60;99.90;;;;;;5068508;28;20226;-59
2022/06/26 05:11:01;;;;;;;0.60;0.60;;;20.70;99.90;;;;;;5076357;28;20275;-60
2022/06/26 05:13:27;;;;;;;0.40;0.40;;;20.80;99.90;;;;;;5069693;28;20681;-58
2022/06/26 05:15:56;;;;;;;1.40;0.70;;;20.90;99.90;;;;;;5074850;28;20258;-57
2022/06/26 05:18:22;;;;;;;0.63;0.63;;;21.20;99.90;;;;;;5071895;28;20250;-58
2022/06/26 05:20:51;;;;;;;0.63;0.63;;;21.30;99.90;;;;;;5077566;28;20292;-58
2022/06/26 05:23:18;;;;;;;0.60;0.60;;;21.50;99.90;;;;;;5060245;28;20215;-57
2022/06/26 05:25:45;;;;;;;0.60;0.60;;;21.70;99.90;;;;;;5068558;28;20255;-58
2022/06/26 05:28:12;;;;;;;0.60;0.60;;;21.80;99.90;;;;;;5064208;28;20290;-66
2022/06/26 05:30:39;;;;;;;0.80;0.80;;;21.90;99.90;;;;;;5070442;28;20232;-65
2022/06/26 05:33:06;;;;;;;0.70;0.70;;;21.70;99.90;;;;;;5068209;28;20290;-65
2022/06/26 05:35:34;;;;;;;0.70;0.70;;;21.60;99.90;;;;;;5065592;28;20562;-66
2022/06/26 05:38:02;;;;;;;0.60;0.60;;;21.60;99.90;;;;;;5065093;28;20200;-66
2022/06/26 05:40:29;;;;;;;0.55;0.55;;;21.70;99.90;;;;;;5065408;28;20220;-66
2022/06/26 05:42:57;;;;;;;0.52;0.52;;;21.90;99.90;;;;;;5052291;28;20238;-68
2022/06/26 05:45:24;;;;;;;0.50;0.50;;;21.90;99.90;;;;;;5064424;28;20240;-67
2022/06/26 05:47:51;;;;;;;0.50;0.50;;;22.20;99.90;;;;;;5067091;28;20243;-65
2022/06/26 05:50:18;;;;;;;0.60;0.60;;;22.50;99.90;;;;;;5063508;28;20258;-67
2022/06/26 05:52:45;;;;;;;0.60;0.60;;;22.70;99.90;;;;;;5073764;28;20290;-66
2022/06/26 05:55:13;;;;;;;0.63;0.63;;;22.90;99.90;;;;;;5063733;28;20260;-66
2022/06/26 05:57:40;;;;;;;0.47;0.47;;;23.00;99.90;;;;;;5057648;28;20298;-66
2022/06/26 06:00:09;;;;;;;0.60;0.60;;;23.10;99.90;;;;;;5069881;28;20310;-66
2022/06/26 06:02:36;;;;;;;0.73;0.73;;;23.10;99.90;;;;;;5073443;28;20231;-68
2022/06/26 06:05:03;;;;;;;0.63;0.63;;;23.20;99.90;;;;;;5074346;28;20225;-66
2022/06/26 06:07:30;;;;;;;0.70;0.70;;;23.30;99.90;;;;;;5064233;28;20283;-66
2022/06/26 06:09:56;;;;;;;0.68;0.68;;;23.30;99.90;;;;;;5069660;28;20223;-67
2022/06/26 06:12:25;;;;;;;0.60;0.60;;;23.30;99.90;;;;;;5069099;28;20208;-67
2022/06/26 06:14:52;;;;;;;0.80;0.80;;;23.30;99.90;;;;;;5071378;28;20237;-67
2022/06/26 06:17:37;;;;;;;0.70;0.70;;;23.10;99.90;;;;;;5065079;28;20294;-66
2022/06/26 06:20:05;;;;;;;0.73;0.73;;;23.00;99.90;;;;;;5069109;28;20223;-66
2022/06/26 06:22:32;;;;;;;0.80;0.60;;;23.10;99.90;;;;;;5062802;28;20251;-65
2022/06/26 06:24:59;;;;;;;0.73;0.73;;;23.10;99.90;;;;;;5066491;28;20246;-66
2022/06/26 06:27:27;;;;;;;0.70;0.70;;;23.10;99.90;;;;;;5066457;28;20636;-67
2022/06/26 06:29:54;;;;;;;0.80;0.80;;;23.00;99.90;;;;;;5067158;28;20263;-65
2022/06/26 06:32:21;;;;;;;0.80;0.80;;;23.10;99.90;;;;;;5072246;28;20234;-66
2022/06/26 06:34:48;;;;;;;0.98;0.98;;;23.20;99.90;;;;;;5061033;28;20211;-68
2022/06/26 06:37:15;;;;;;;0.63;0.63;;;23.20;99.90;;;;;;5066068;28;20584;-67
2022/06/26 06:39:42;;;;;;;0.70;0.70;;;23.10;99.90;;;;;;5062323;28;20306;-67
2022/06/26 06:42:09;;;;;;;0.70;0.70;;;23.30;99.90;;;;;;5056848;28;20291;-67
2022/06/26 06:44:37;;;;;;;0.80;0.80;;;23.20;99.90;;;;;;5059882;28;20255;-69
2022/06/26 06:47:05;;;;;;;0.57;0.57;;;23.30;99.90;;;;;;5057019;28;20259;-67
2022/06/26 06:49:32;;;;;;;0.75;0.75;;;23.20;99.90;;;;;;5049087;28;20236;-65
2022/06/26 06:51:59;;;;;;;0.65;0.65;;;23.10;99.90;;;;;;5060640;28;20256;-65
2022/06/26 06:54:26;;;;;;;0.60;0.60;;;23.40;99.90;;;;;;5061875;28;20574;-64
2022/06/26 06:56:53;;;;;;;0.88;0.88;;;23.60;99.90;;;;;;5051947;28;20204;-67
2022/06/26 06:59:20;;;;;;;0.70;0.70;;;23.80;99.90;;;;;;5046980;28;20231;-66
2022/06/26 07:01:49;;;;;;;0.65;0.65;;;24.00;99.90;;;;;;5046145;28;20205;-67
2022/06/26 07:04:16;;;;;;;0.85;0.85;;;24.30;99.90;;;;;;5053997;28;20213;-66
2022/06/26 07:06:43;;;;;;;0.70;0.70;;;24.60;99.90;;;;;;5052542;28;20212;-65
2022/06/26 07:09:10;;;;;;;0.80;0.80;;;24.70;99.90;;;;;;5051458;28;20310;-65
2022/06/26 07:11:37;;;;;;;0.88;0.88;;;24.80;99.90;;;;;;5057861;28;20235;-65
2022/06/26 07:14:04;;;;;;;0.80;0.80;;;24.50;99.90;;;;;;5052491;28;20210;-66
2022/06/26 07:16:31;;;;;;;0.80;0.80;;;24.00;99.90;;;;;;5048102;28;20232;-67
2022/06/26 07:18:59;;;;;;;0.60;0.60;;;23.90;99.90;;;;;;5060065;28;20250;-67
2022/06/26 07:21:26;;;;;;;0.63;0.63;;;23.80;99.90;;;;;;5055153;28;20200;-66
2022/06/26 07:23:53;;;;;;;0.65;0.63;;;23.80;99.90;;;;;;5053430;28;20750;-68
2022/06/26 07:26:20;;;;;;;0.70;0.70;;;23.80;99.90;;;;;;5064003;28;20224;-67
2022/06/26 07:28:46;;;;;;;0.60;0.60;;;23.80;99.90;;;;;;5055529;28;20239;-66
2022/06/26 07:31:13;;;;;;;0.80;0.80;;;23.60;99.90;;;;;;5063915;28;20291;-65
2022/06/26 07:36:26;;;;;;;0.70;0.70;;;23.70;99.90;;;;;;5050892;28;20195;-65
2022/06/26 07:38:54;;;;;;;0.80;0.80;;;23.90;99.90;;;;;;5054319;28;20300;-66
2022/06/26 07:41:21;;;;;;;0.80;0.80;;;23.80;99.90;;;;;;5054609;28;20196;-66
2022/06/26 07:43:48;;;;;;;0.90;0.90;;;23.80;99.90;;;;;;5049733;28;20314;-66
2022/06/26 07:46:15;;;;;;;0.85;0.85;;;23.60;99.90;;;;;;5050109;28;20281;-66
2022/06/26 07:48:42;;;;;;;0.80;0.80;;;23.50;99.90;;;;;;5057220;28;20692;-68
2022/06/26 07:51:09;;;;;;;0.88;0.88;;;23.40;99.90;;;;;;5061148;28;20690;-66
2022/06/26 07:53:37;;;;;;;0.90;0.90;;;23.20;99.90;;;;;;5057309;28;20204;-66
2022/06/26 07:56:05;;;;;;;0.80;0.80;;;23.20;99.90;;;;;;5054033;28;20663;-66
2022/06/26 07:58:32;;;;;;;0.80;0.80;;;23.10;99.90;;;;;;5106195;22;20675;-62
2022/06/26 08:00:59;;;;;;;0.80;0.80;;;22.90;99.90;;;;;;5103376;28;20206;-63
2022/06/26 08:03:26;;;;;;;0.95;0.95;;;22.90;99.90;;;;;;5104560;28;20679;-61
2022/06/26 08:05:54;;;;;;;0.70;0.70;;;22.90;99.90;;;;;;5100115;28;20766;-62
2022/06/26 08:08:21;;;;;;;0.90;0.90;;;23.00;99.90;;;;;;5095368;28;20305;-62
2022/06/26 08:10:49;;;;;;;0.80;0.80;;;23.10;99.90;;;;;;5097463;28;20557;-63
2022/06/26 08:13:16;;;;;;;0.88;0.88;;;23.10;99.90;;;;;;5094285;28;20206;-61
2022/06/26 08:15:43;;;;;;;0.90;0.90;;;23.20;99.90;;;;;;5089218;28;20198;-59
2022/06/26 08:18:11;;;;;;;0.95;0.95;;;23.30;99.90;;;;;;5085177;28;20564;-59
2022/06/26 08:20:38;;;;;;;1.00;1.00;;;23.40;99.90;;;;;;5081393;28;20641;-59
2022/06/26 08:23:05;;;;;;;0.90;0.90;;;23.60;99.90;;;;;;5079070;28;20302;-58
2022/06/26 08:25:32;;;;;;;1.20;1.10;;;23.80;99.90;;;;;;5084861;28;20226;-60
2022/06/26 08:28:00;;;;;;;1.05;1.05;;;23.90;99.90;;;;;;5085098;28;20252;-59
2022/06/26 08:30:27;;;;;;;1.10;0.80;;;24.00;99.90;;;;;;5079455;28;20199;-60
2022/06/26 08:32:57;;;;;;;2.38;0.80;;;24.00;99.90;;;;;;5085601;28;20310;-59
2022/06/26 08:35:24;;;;;;;1.23;0.95;;;23.90;99.90;;;;;;5093621;28;20206;-60
2022/06/26 08:37:51;;;;;;;0.70;0.70;;;23.80;99.90;;;;;;5092445;28;20303;-59
2022/06/26 08:40:18;;;;;;;2.08;0.80;;;23.90;99.90;;;;;;5077221;28;20579;-59
2022/06/26 08:42:48;;;;;;;0.80;0.80;;;23.70;99.90;;;;;;5085426;28;20230;-59
2022/06/26 08:45:18;;;;;;;0.90;0.90;;;23.70;99.90;;;;;;5084559;28;20218;-59
2022/06/26 08:47:50;;;;;;;0.70;0.70;;;23.70;99.90;;;;;;5078868;28;20309;-59
2022/06/26 08:50:20;;;;;;;1.10;1.10;;;23.60;99.90;;;;;;5081470;28;20818;-59
2022/06/26 08:52:49;;;;;;;0.70;0.70;;;23.70;99.90;;;;;;5090595;28;20228;-60
2022/06/26 08:55:17;;;;;;;0.90;0.90;;;23.80;99.90;;;;;;5085906;28;20198;-60
2022/06/26 08:57:44;;;;;;;0.88;0.88;;;23.80;99.90;;;;;;5092234;28;20261;-60
2022/06/26 09:00:13;;;;;;;0.80;0.80;;;24.00;99.90;;;;;;5092307;28;20210;-59
2022/06/26 09:02:42;;;;;;;0.63;0.63;;;24.10;99.90;;;;;;5085113;28;20206;-60
2022/06/26 09:05:10;;;;;;;0.82;0.82;;;24.20;99.90;;;;;;5092947;28;20306;-59
2022/06/26 09:07:46;;;;;;;0.90;0.90;;;24.20;99.90;;;;;;5084004;28;20288;-60
2022/06/26 09:10:16;;;;;;;0.85;0.85;;;24.10;99.90;;;;;;5091667;28;20210;-61
2022/06/26 09:12:43;;;;;;;0.88;0.88;;;24.20;99.90;;;;;;5080853;28;20230;-64
2022/06/26 09:15:16;;;;;;;0.82;0.82;;;24.30;99.90;;;;;;5089552;28;20234;-59
2022/06/26 09:17:55;;;;;;;1.58;1.50;;;24.50;99.90;;;;;;5080974;28;20637;-59
2022/06/26 09:20:22;;;;;;;3.90;3.70;;;24.70;99.90;;;;;;5082329;28;20646;-58
2022/06/26 09:22:53;;;;;;;0.70;0.70;;;24.70;99.90;;;;;;5091075;28;20721;-61
2022/06/26 09:25:20;;;;;;;1.90;1.80;;;24.70;99.90;;;;;;5089933;28;20255;-60
2022/06/26 09:27:48;;;;;;;18.35;17.38;;;24.40;99.90;;;;;;5094288;28;20227;-62
2022/06/26 09:30:15;;;;;;;1.00;1.00;;;24.30;99.90;;;;;;5091536;28;20207;-64
2022/06/26 09:32:42;;;;;;;7.35;6.95;;;24.10;99.90;;;;;;5092982;28;20653;-65
2022/06/26 09:35:10;;;;;;;7.95;7.55;;;24.00;99.90;;;;;;5089976;28;20203;-63
2022/06/26 09:37:39;;;;;;;31.00;29.25;;;23.90;99.90;;;;;;5092340;28;20265;-63
2022/06/26 09:40:07;;;;;;;4.75;4.55;;;23.80;99.90;;;;;;5091813;28;20206;-65
2022/06/26 09:42:35;;;;;;;0.90;0.90;;;23.80;99.90;;;;;;5084478;28;20729;-63
2022/06/26 09:45:02;;;;;;;0.68;0.68;;;23.70;99.90;;;;;;5090250;28;20199;-63
2022/06/26 09:47:30;;;;;;;1.33;1.23;;;23.60;99.90;;;;;;5094408;28;20331;-63
2022/06/26 09:49:59;;;;;;;5.45;5.15;;;23.40;99.90;;;;;;5097414;28;20221;-63
2022/06/26 09:52:29;;;;;;;1.50;1.40;;;23.40;99.90;;;;;;5089796;28;21524;-64
2022/06/26 09:54:58;;;;;;;1.40;0.70;;;23.40;99.90;;;;;;5089677;28;20205;-64
2022/06/26 09:57:26;;;;;;;0.60;0.60;;;23.40;99.90;;;;;;5085769;28;20241;-62
2022/06/26 09:59:53;;;;;;;2.45;2.35;;;23.60;99.90;;;;;;5092623;28;20203;-64
2022/06/26 10:07:54;;;;;;;1.02;1.02;;;23.90;99.90;;;;;;5088396;28;20299;-62
2022/06/26 10:10:23;;;;;;;0.70;0.70;;;23.90;99.90;;;;;;5095471;28;20230;-63
2022/06/26 10:12:53;;;;;;;6.45;6.05;;;23.90;99.90;;;;;;5095310;28;20660;-63
2022/06/26 10:15:25;;;;;;;12.65;11.95;;;24.10;99.90;;;;;;5090117;28;20202;-63
2022/06/26 10:18:09;;;;;;;17.55;16.50;;;24.40;99.90;;;;;;5088504;28;20715;-62
2022/06/26 10:20:37;;;;;;;3.20;3.08;;;24.70;99.90;;;;;;5107246;28;20633;-62
2022/06/26 10:23:06;;;;;;;1.77;1.67;;;24.60;99.90;;;;;;5098657;28;20575;-63
2022/06/26 10:25:34;;;;;;;0.82;0.82;;;24.60;99.90;;;;;;5094114;28;20582;-62
2022/06/26 10:28:01;;;;;;;1.10;1.10;;;24.70;99.90;;;;;;5097586;28;20777;-63
2022/06/26 10:30:31;;;;;;;0.80;0.80;;;25.00;99.90;;;;;;5104040;28;20223;-63
2022/06/26 10:33:08;;;;;;;0.70;0.70;;;25.20;99.90;;;;;;5101319;28;20202;-63
2022/06/26 10:35:40;;;;;;;0.63;0.63;;;25.00;99.90;;;;;;5104536;28;20553;-61
2022/06/26 10:38:25;;;;;;;0.80;0.80;;;25.00;99.90;;;;;;5102142;28;20233;-64
2022/06/26 10:44:02;;;;;;;0.70;0.70;;;24.80;99.90;;;;;;5100683;28;20295;-62
2022/06/26 10:46:36;;;;;;;0.80;0.80;;;24.90;99.90;;;;;;5094925;28;20210;-62
2022/06/26 10:49:07;;;;;;;0.65;0.65;;;25.00;99.90;;;;;;5095724;28;20217;-61
2022/06/26 10:51:35;;;;;;;0.60;0.60;;;25.20;99.90;;;;;;5102672;28;20260;-62
2022/06/26 10:54:04;;;;;;;0.60;0.60;;;25.30;99.90;;;;;;5106996;28;20198;-63
2022/06/26 10:56:31;;;;;;;0.60;0.60;;;25.30;99.90;;;;;;5102677;28;20197;-63
2022/06/26 10:59:02;;;;;;;0.50;0.50;;;25.50;99.90;;;;;;5106712;28;20207;-62
2022/06/26 11:01:29;;;;;;;0.70;0.70;;;25.40;99.90;;;;;;5103871;28;20205;-63
2022/06/26 11:03:57;;;;;;;0.75;0.75;;;25.20;99.90;;;;;;5099138;28;20198;-64
2022/06/26 11:06:28;;;;;;;0.80;0.80;;;25.10;99.90;;;;;;5099340;28;20273;-63
2022/06/26 11:08:56;;;;;;;0.90;0.90;;;25.20;99.90;;;;;;5108222;28;20198;-63
2022/06/26 11:11:31;;;;;;;0.80;0.80;;;25.40;99.90;;;;;;5103661;28;20202;-62
2022/06/26 11:14:00;;;;;;;1.05;1.05;;;25.70;99.90;;;;;;5099201;28;20205;-63
2022/06/26 11:16:32;;;;;;;0.90;0.90;;;26.10;99.90;;;;;;5103980;28;20202;-62
2022/06/26 11:19:00;;;;;;;0.80;0.80;;;26.40;99.90;;;;;;5098092;28;20205;-62
2022/06/26 11:21:28;;;;;;;1.10;1.10;;;26.40;99.90;;;;;;5096207;28;20701;-63
2022/06/26 11:23:55;;;;;;;0.80;0.80;;;26.20;99.90;;;;;;5091208;28;20195;-63
2022/06/26 11:26:24;;;;;;;0.82;0.82;;;25.80;99.90;;;;;;5087397;28;20215;-63
2022/06/26 11:28:56;;;;;;;0.60;0.60;;;25.70;99.90;;;;;;5078955;28;20712;-62
2022/06/26 11:31:26;;;;;;;0.70;0.70;;;25.80;99.90;;;;;;5084128;28;20199;-62
2022/06/26 11:33:53;;;;;;;0.80;0.80;;;26.00;99.90;;;;;;5088384;28;20202;-62
2022/06/26 11:36:22;;;;;;;0.80;0.80;;;26.20;99.90;;;;;;5088318;28;20208;-63
2022/06/26 11:38:54;;;;;;;0.77;0.77;;;26.50;99.90;;;;;;5102949;28;20202;-62
2022/06/26 11:41:22;;;;;;;0.80;0.80;;;26.60;99.90;;;;;;5100686;28;20703;-63
2022/06/26 11:43:53;;;;;;;0.70;0.70;;;26.40;99.90;;;;;;5094460;28;20213;-64
2022/06/26 11:46:20;;;;;;;0.70;0.70;;;26.70;99.90;;;;;;5096642;28;20242;-63
2022/06/26 11:48:50;;;;;;;0.77;0.77;;;26.70;99.90;;;;;;5104103;28;20222;-64
2022/06/26 11:51:18;;;;;;;0.70;0.70;;;26.80;99.90;;;;;;5095347;27;20225;-63
2022/06/26 11:53:47;;;;;;;0.88;0.65;;;26.80;99.90;;;;;;5102405;28;20210;-63
2022/06/26 11:56:20;;;;;;;0.90;0.90;;;26.90;99.90;;;;;;5103732;28;20672;-63
2022/06/26 11:58:49;;;;;;;0.60;0.60;;;26.70;99.90;;;;;;5110440;28;20233;-63
2022/06/26 12:01:18;;;;;;;0.68;0.68;;;26.40;99.90;;;;;;5103547;28;20632;-62
2022/06/26 12:03:55;;;;;;;0.70;0.70;;;26.40;99.90;;;;;;5101884;28;20255;-62
2022/06/26 12:06:33;;;;;;;0.98;0.98;;;26.40;99.90;;;;;;5087251;28;20313;-62
2022/06/26 12:09:01;;;;;;;0.70;0.70;;;26.30;99.90;;;;;;5092469;28;20616;-62
2022/06/26 12:11:28;;;;;;;0.70;0.70;;;26.40;99.90;;;;;;5093489;28;20232;-63
2022/06/26 12:13:55;;;;;;;0.60;0.60;;;26.50;99.90;;;;;;5093332;28;20230;-62
2022/06/26 12:16:24;;;;;;;0.60;0.60;;;26.50;99.90;;;;;;5090394;28;20649;-62
2022/06/26 12:18:51;;;;;;;0.70;0.70;;;26.70;99.90;;;;;;5097925;28;20203;-62
2022/06/26 12:21:20;;;;;;;0.60;0.60;;;26.80;99.90;;;;;;5094431;28;20213;-62
2022/06/26 12:23:48;;;;;;;0.70;0.70;;;26.60;99.90;;;;;;5098123;28;20684;-63
2022/06/26 12:26:18;;;;;;;0.68;0.68;;;26.70;99.90;;;;;;5109684;28;20225;-64
2022/06/26 12:28:47;;;;;;;0.70;0.70;;;26.70;99.90;;;;;;5098540;28;20361;-62
2022/06/26 12:31:15;;;;;;;0.70;0.70;;;26.90;99.90;;;;;;5102133;28;20213;-63
2022/06/26 12:33:45;;;;;;;0.70;0.70;;;26.90;99.90;;;;;;5091541;28;20205;-63
2022/06/26 12:36:12;;;;;;;0.73;0.73;;;27.00;99.90;;;;;;5091090;28;20705;-62
2022/06/26 12:38:40;;;;;;;0.60;0.60;;;27.10;99.90;;;;;;5103481;28;20310;-64
2022/06/26 12:41:16;;;;;;;1.55;0.65;;;27.10;99.90;;;;;;5101463;27;20194;-62
2022/06/26 12:43:44;;;;;;;0.90;0.80;;;27.00;99.90;;;;;;5097361;28;20582;-61
2022/06/26 12:46:11;;;;;;;0.50;0.50;;;26.70;99.90;;;;;;5102146;28;20214;-61
2022/06/26 12:48:38;;;;;;;0.68;0.68;;;26.80;99.90;;;;;;5100700;28;20317;-61
2022/06/26 12:51:07;;;;;;;0.70;0.70;;;26.90;99.90;;;;;;5105466;28;20205;-62
2022/06/26 12:53:34;;;;;;;0.55;0.50;;;26.90;99.90;;;;;;5102316;28;20652;-62
2022/06/26 12:56:01;;;;;;;0.60;0.60;;;26.90;99.90;;;;;;5097100;28;20657;-62
2022/06/26 12:58:29;;;;;;;0.70;0.70;;;27.20;99.90;;;;;;5099639;28;20234;-62
2022/06/26 13:00:56;;;;;;;0.70;0.70;;;27.30;99.90;;;;;;5102032;28;20627;-61
2022/06/26 13:03:23;;;;;;;0.50;0.50;;;27.10;99.90;;;;;;5095661;28;20648;-61
2022/06/26 13:05:51;;;;;;;0.60;0.60;;;27.40;99.90;;;;;;5100063;28;20287;-61